Meteo Giornale » Osservazioni meteo Italia » Treviso-S Angelo

ore: 15:50 - Osservazioni Meteo Treviso-S Angelo
Lat. 45° 39' N Lon. 12° 11' E Alt. 18 metri s.l.m.

poco_nuvoloso Europe/Rome

27 °C

Poco Nuvoloso

Temp. 24 Ore

19 °C

31 °C

Sud

7.4 Km/h

Dew point 20 °C

Umidità 65 %

Visibilità  10 Km

Il sole sorge alle ore 05:36

Il sole tramonta alle ore 20:58

Data e Ora Cielo e Fenomeni T °C DP °C Um. % Pres. hPa Vis. km Vento km/h
Oggi h: 15:50 poco_nuvoloso Poco Nuvoloso 27 20 65 1011 10 S 7.4
Oggi h: 15:20 poco_nuvoloso Poco Nuvoloso 28 19 58 1011 10 S 9.3
Oggi h: 14:50 sereno Sereno 28 18 54 1011 10 N 5.5
Oggi h: 13:50 sereno Sereno 28 19 58 1011 10 N 5.5
Oggi h: 13:20 sereno Sereno 27 18 57 1012 10 N 3.7
Oggi h: 12:50 sereno Sereno 27 19 61 1012 10 N 5.5
Oggi h: 12:20 sereno Sereno 27 17 54 1012 10 S 7.4
Oggi h: 11:50 sereno Sereno 27 17 54 1012 10 N 5.5
Oggi h: 11:20 sereno Sereno 26 17 57 1012 10 N 5.5
Oggi h: 10:50 sereno Sereno 26 16 54 1012 10 N 5.5
Oggi h: 10:20 sereno Sereno 25 17 61 1012 10 O 7.4
Oggi h: 09:50 sereno Sereno 24 18 69 1012 10 O/NO 7.4
Oggi h: 09:20 sereno Sereno 23 18 73 1013 10 N 5.5
Oggi h: 08:50 sereno Sereno 23 19 78 1013 10 N 3.7
Oggi h: 08:20 sereno Sereno 21 19 88 1013 10 SO 7.4
Oggi h: 07:50 sereno Sereno 20 19 93 1013 10 S 11.1
Oggi h: 07:20 sereno Sereno 20 19 93 1013 10 S/SO 9.3
Oggi h: 06:50 molto_nuvoloso Molto Nuvoloso 20 18 88 1012 10 N 3.7
Oggi h: 06:20 molto_nuvoloso Molto Nuvoloso 20 19 93 1012 10 N 5.5
Oggi h: 05:50 coperto_pioggia Pioggia Debole 19 19 100 1013 10 N 5.5
Oggi h: 05:20 coperto_pioggia Pioggia 19 18 93 1013 10 O/SO 9.3
Oggi h: 04:50 coperto_pioggia Pioggia Debole 20 19 93 1013 10 O/SO 7.4
Oggi h: 04:20 coperto_pioggia Pioggia Debole 20 19 93 1013 10 N 5.5
Oggi h: 03:50 molto_nuvoloso Molto Nuvoloso 20 19 93 1012 10 N 3.7
Oggi h: 03:20 coperto Coperto 20 19 93 1013 10 N 1.8
Oggi h: 02:50 molto_nuvoloso Molto Nuvoloso 20 19 93 1012 10 N 1.8
Oggi h: 02:20 sereno Sereno 20 18 88 1013 10 N 1.8
Oggi h: 01:50 sereno Sereno 20 18 88 1013 10 N 3.7
Oggi h: 01:20 sereno Sereno 20 18 88 1014 10 N/NE 7.4
Oggi h: 00:50 sereno Sereno 20 19 93 1014 10 N 5.5
Oggi h: 00:20 coperto_pioggia Pioggia Debole 21 18 82 1014 10 N 13
Ieri h: 23:50 coperto_pioggia Pioggia Debole 21 18 82 1014 10 NE 13
Ieri h: 23:20 nuvoloso Nuvoloso 21 18 82 1015 10 N 13
Ieri h: 22:50 coperto_pioggia Pioggia Debole Temporale nelle Vicinanze 21 19 88 1014 10 N 16.7
Ieri h: 22:20 nuvoloso_temporali Temporale con Pioggia 24 18 69 1013 4 NE 13
Ieri h: 21:50 coperto_pioggia Pioggia Debole 25 18 65 1012 10 NE 20.3
Ieri h: 21:20 nuvoloso Nuvoloso 26 20 69 1011 10 N 5.5
Ieri h: 20:20 sereno Sereno 27 20 65 1011 10 E/SE 7.4
Ieri h: 19:50 sereno Sereno 29 20 58 1012 10 E/SE 11.1
Ieri h: 19:20 sereno Sereno 30 19 51 1012 10 N 5.5
Ieri h: 18:50 sereno Sereno 31 18 45 1011 10 N 3.7
Ieri h: 18:20 sereno Sereno 30 19 51 1012 10 N 5.5
Ieri h: 17:50 sereno Sereno 30 20 55 1012 10 N 3.7
Ieri h: 17:20 sereno Sereno 30 19 51 1012 10 N 5.5
Ieri h: 16:50 sereno Sereno 30 20 55 1012 10 N 3.7